sensor_id;sensor_type;location;lat;lon;timestamp;pressure;altitude;pressure_sealevel;temperature;humidity
35307;BME280;21420;52.196;21.416;2023-07-31T00:02:17;99593.63;;;17.14;60.96
35307;BME280;21420;52.196;21.416;2023-07-31T00:04:44;99594.02;;;17.12;61.15
35307;BME280;21420;52.196;21.416;2023-07-31T00:07:11;99597.44;;;17.08;61.01
35307;BME280;21420;52.196;21.416;2023-07-31T00:09:37;99597.83;;;17.05;61.07
35307;BME280;21420;52.196;21.416;2023-07-31T00:12:04;99596.58;;;17.02;61.19
35307;BME280;21420;52.196;21.416;2023-07-31T00:14:31;99597.05;;;17.00;61.25
35307;BME280;21420;52.196;21.416;2023-07-31T00:16:58;99594.77;;;16.97;61.16
35307;BME280;21420;52.196;21.416;2023-07-31T00:19:25;99593.66;;;16.94;61.22
35307;BME280;21420;52.196;21.416;2023-07-31T00:21:51;99594.14;;;16.91;61.35
35307;BME280;21420;52.196;21.416;2023-07-31T00:24:18;99594.09;;;16.88;61.35
35307;BME280;21420;52.196;21.416;2023-07-31T00:26:45;99591.00;;;16.85;61.46
35307;BME280;21420;52.196;21.416;2023-07-31T00:29:11;99591.87;;;16.82;61.47
35307;BME280;21420;52.196;21.416;2023-07-31T00:31:38;99591.16;;;16.81;61.54
35307;BME280;21420;52.196;21.416;2023-07-31T00:34:05;99586.10;;;16.79;61.66
35307;BME280;21420;52.196;21.416;2023-07-31T00:36:34;99584.90;;;16.77;61.53
35307;BME280;21420;52.196;21.416;2023-07-31T00:39:01;99589.40;;;16.75;61.66
35307;BME280;21420;52.196;21.416;2023-07-31T00:41:27;99592.72;;;16.73;61.65
35307;BME280;21420;52.196;21.416;2023-07-31T00:43:54;99599.44;;;16.69;61.64
35307;BME280;21420;52.196;21.416;2023-07-31T00:46:21;99601.41;;;16.65;61.71
35307;BME280;21420;52.196;21.416;2023-07-31T00:48:48;99601.58;;;16.62;61.66
35307;BME280;21420;52.196;21.416;2023-07-31T00:51:16;99604.81;;;16.60;61.75
35307;BME280;21420;52.196;21.416;2023-07-31T00:53:43;99606.39;;;16.57;61.91
35307;BME280;21420;52.196;21.416;2023-07-31T00:56:10;99612.14;;;16.53;61.86
35307;BME280;21420;52.196;21.416;2023-07-31T00:58:37;99612.55;;;16.48;61.85
35307;BME280;21420;52.196;21.416;2023-07-31T01:01:04;99606.31;;;16.44;62.03
35307;BME280;21420;52.196;21.416;2023-07-31T01:03:31;99606.16;;;16.41;62.09
35307;BME280;21420;52.196;21.416;2023-07-31T01:11:20;99600.85;;;16.37;62.25
35307;BME280;21420;52.196;21.416;2023-07-31T01:13:48;99598.65;;;16.35;62.16
35307;BME280;21420;52.196;21.416;2023-07-31T01:16:14;99600.46;;;16.33;62.36
35307;BME280;21420;52.196;21.416;2023-07-31T01:18:42;99599.91;;;16.31;62.46
35307;BME280;21420;52.196;21.416;2023-07-31T01:26:43;99607.40;;;16.23;62.35
35307;BME280;21420;52.196;21.416;2023-07-31T01:31:48;99601.48;;;16.17;62.44
35307;BME280;21420;52.196;21.416;2023-07-31T01:34:17;99600.92;;;16.15;62.53
35307;BME280;21420;52.196;21.416;2023-07-31T01:36:44;99601.54;;;16.15;62.42
35307;BME280;21420;52.196;21.416;2023-07-31T01:39:11;99611.50;;;16.15;62.43
35307;BME280;21420;52.196;21.416;2023-07-31T01:41:38;99613.94;;;16.15;62.64
35307;BME280;21420;52.196;21.416;2023-07-31T01:44:05;99612.90;;;16.15;62.61
35307;BME280;21420;52.196;21.416;2023-07-31T01:46:32;99613.05;;;16.14;62.65
35307;BME280;21420;52.196;21.416;2023-07-31T01:48:58;99613.54;;;16.16;62.69
35307;BME280;21420;52.196;21.416;2023-07-31T01:51:25;99613.00;;;16.18;62.76
35307;BME280;21420;52.196;21.416;2023-07-31T01:53:52;99613.16;;;16.20;62.84
35307;BME280;21420;52.196;21.416;2023-07-31T01:56:19;99609.37;;;16.19;62.76
35307;BME280;21420;52.196;21.416;2023-07-31T01:58:45;99610.23;;;16.20;62.77
35307;BME280;21420;52.196;21.416;2023-07-31T02:01:12;99613.23;;;16.20;62.93
35307;BME280;21420;52.196;21.416;2023-07-31T02:03:39;99611.41;;;16.21;62.90
35307;BME280;21420;52.196;21.416;2023-07-31T02:06:06;99609.91;;;16.21;62.84
35307;BME280;21420;52.196;21.416;2023-07-31T02:08:32;99607.80;;;16.20;62.85
35307;BME280;21420;52.196;21.416;2023-07-31T02:10:59;99605.27;;;16.18;62.87
35307;BME280;21420;52.196;21.416;2023-07-31T02:13:26;99606.84;;;16.18;62.97
35307;BME280;21420;52.196;21.416;2023-07-31T02:19:05;99615.98;;;16.11;62.91
35307;BME280;21420;52.196;21.416;2023-07-31T02:21:32;99614.79;;;16.06;63.01
35307;BME280;21420;52.196;21.416;2023-07-31T02:23:58;99615.64;;;16.02;63.01
35307;BME280;21420;52.196;21.416;2023-07-31T02:26:25;99617.30;;;15.99;62.98
35307;BME280;21420;52.196;21.416;2023-07-31T02:28:52;99615.79;;;15.99;63.10
35307;BME280;21420;52.196;21.416;2023-07-31T02:31:18;99613.82;;;15.98;63.17
35307;BME280;21420;52.196;21.416;2023-07-31T02:33:48;99621.31;;;15.96;63.25
35307;BME280;21420;52.196;21.416;2023-07-31T02:36:15;99623.43;;;15.93;63.19
35307;BME280;21420;52.196;21.416;2023-07-31T02:38:42;99621.14;;;15.91;63.13
35307;BME280;21420;52.196;21.416;2023-07-31T02:41:08;99622.88;;;15.91;63.31
35307;BME280;21420;52.196;21.416;2023-07-31T02:43:35;99628.15;;;15.90;63.28
35307;BME280;21420;52.196;21.416;2023-07-31T02:46:01;99628.00;;;15.89;63.14
35307;BME280;21420;52.196;21.416;2023-07-31T02:48:28;99626.09;;;15.87;63.29
35307;BME280;21420;52.196;21.416;2023-07-31T02:50:55;99628.68;;;15.85;63.36
35307;BME280;21420;52.196;21.416;2023-07-31T02:53:21;99634.04;;;15.83;63.32
35307;BME280;21420;52.196;21.416;2023-07-31T02:55:49;99636.80;;;15.80;63.37
35307;BME280;21420;52.196;21.416;2023-07-31T02:58:16;99640.17;;;15.77;63.54
35307;BME280;21420;52.196;21.416;2023-07-31T03:00:43;99643.24;;;15.75;63.57
35307;BME280;21420;52.196;21.416;2023-07-31T03:03:10;99644.89;;;15.73;63.45
35307;BME280;21420;52.196;21.416;2023-07-31T03:05:37;99646.77;;;15.71;63.47
35307;BME280;21420;52.196;21.416;2023-07-31T03:08:04;99647.14;;;15.69;63.45
35307;BME280;21420;52.196;21.416;2023-07-31T03:10:31;99646.27;;;15.69;63.80
35307;BME280;21420;52.196;21.416;2023-07-31T03:12:57;99649.63;;;15.71;63.85
35307;BME280;21420;52.196;21.416;2023-07-31T03:15:24;99646.79;;;15.74;63.60
35307;BME280;21420;52.196;21.416;2023-07-31T03:17:51;99643.89;;;15.77;63.78
35307;BME280;21420;52.196;21.416;2023-07-31T03:20:17;99640.11;;;15.81;63.99
35307;BME280;21420;52.196;21.416;2023-07-31T03:22:45;99641.79;;;15.86;63.96
35307;BME280;21420;52.196;21.416;2023-07-31T03:25:12;99647.80;;;15.90;63.83
35307;BME280;21420;52.196;21.416;2023-07-31T03:27:39;99647.01;;;15.92;64.03
35307;BME280;21420;52.196;21.416;2023-07-31T03:30:06;99638.97;;;15.93;63.89
35307;BME280;21420;52.196;21.416;2023-07-31T03:32:33;99640.63;;;15.97;64.07
35307;BME280;21420;52.196;21.416;2023-07-31T03:35:00;99641.29;;;16.01;63.85
35307;BME280;21420;52.196;21.416;2023-07-31T03:37:26;99641.70;;;16.05;63.92
35307;BME280;21420;52.196;21.416;2023-07-31T03:39:53;99636.80;;;16.10;63.90
35307;BME280;21420;52.196;21.416;2023-07-31T03:42:19;99642.48;;;16.13;64.12
35307;BME280;21420;52.196;21.416;2023-07-31T03:44:50;99645.27;;;16.17;64.02
35307;BME280;21420;52.196;21.416;2023-07-31T03:47:16;99641.02;;;16.26;64.14
35307;BME280;21420;52.196;21.416;2023-07-31T03:49:44;99638.20;;;16.33;64.21
35307;BME280;21420;52.196;21.416;2023-07-31T03:52:10;99645.39;;;16.39;64.16
35307;BME280;21420;52.196;21.416;2023-07-31T03:54:37;99649.17;;;16.45;64.25
35307;BME280;21420;52.196;21.416;2023-07-31T03:57:04;99649.02;;;16.50;64.17
35307;BME280;21420;52.196;21.416;2023-07-31T03:59:30;99647.36;;;16.55;64.08
35307;BME280;21420;52.196;21.416;2023-07-31T04:01:57;99649.26;;;16.59;64.42
35307;BME280;21420;52.196;21.416;2023-07-31T04:04:24;99654.17;;;16.63;64.22
35307;BME280;21420;52.196;21.416;2023-07-31T04:06:50;99652.66;;;16.66;64.23
35307;BME280;21420;52.196;21.416;2023-07-31T04:09:17;99656.45;;;16.71;64.21
35307;BME280;21420;52.196;21.416;2023-07-31T04:11:46;99655.98;;;16.76;64.38
35307;BME280;21420;52.196;21.416;2023-07-31T04:14:13;99659.80;;;16.81;64.42
35307;BME280;21420;52.196;21.416;2023-07-31T04:16:40;99663.60;;;16.84;64.27
35307;BME280;21420;52.196;21.416;2023-07-31T04:19:07;99667.62;;;16.85;64.15
35307;BME280;21420;52.196;21.416;2023-07-31T04:21:33;99667.45;;;16.86;64.12
35307;BME280;21420;52.196;21.416;2023-07-31T04:24:00;99668.73;;;16.89;64.29
35307;BME280;21420;52.196;21.416;2023-07-31T04:26:27;99665.95;;;16.93;64.19
35307;BME280;21420;52.196;21.416;2023-07-31T04:28:53;99666.82;;;16.97;64.30
35307;BME280;21420;52.196;21.416;2023-07-31T04:31:20;99671.56;;;17.00;64.32
35307;BME280;21420;52.196;21.416;2023-07-31T04:33:46;99677.02;;;17.01;64.23
35307;BME280;21420;52.196;21.416;2023-07-31T04:36:13;99678.42;;;17.01;64.12
35307;BME280;21420;52.196;21.416;2023-07-31T04:38:40;99683.48;;;17.02;64.15
35307;BME280;21420;52.196;21.416;2023-07-31T04:41:07;99685.70;;;17.02;64.30
35307;BME280;21420;52.196;21.416;2023-07-31T04:43:34;99690.77;;;17.02;64.37
35307;BME280;21420;52.196;21.416;2023-07-31T04:46:01;99691.23;;;17.03;64.38
35307;BME280;21420;52.196;21.416;2023-07-31T04:48:27;99696.05;;;17.05;64.24
35307;BME280;21420;52.196;21.416;2023-07-31T04:50:54;99697.23;;;17.08;64.39
35307;BME280;21420;52.196;21.416;2023-07-31T04:53:21;99697.95;;;17.11;64.32
35307;BME280;21420;52.196;21.416;2023-07-31T04:55:47;99694.38;;;17.16;64.44
35307;BME280;21420;52.196;21.416;2023-07-31T04:58:14;99695.08;;;17.21;64.40
35307;BME280;21420;52.196;21.416;2023-07-31T05:00:41;99695.63;;;17.26;64.38
35307;BME280;21420;52.196;21.416;2023-07-31T05:03:07;99703.14;;;17.31;64.28
35307;BME280;21420;52.196;21.416;2023-07-31T05:05:34;99700.75;;;17.37;64.48
35307;BME280;21420;52.196;21.416;2023-07-31T05:08:01;99701.37;;;17.43;64.39
35307;BME280;21420;52.196;21.416;2023-07-31T05:10:28;99698.51;;;17.50;64.51
35307;BME280;21420;52.196;21.416;2023-07-31T05:12:54;99698.81;;;17.55;64.56
35307;BME280;21420;52.196;21.416;2023-07-31T05:15:21;99698.08;;;17.61;64.51
35307;BME280;21420;52.196;21.416;2023-07-31T05:17:47;99699.49;;;17.67;64.47
35307;BME280;21420;52.196;21.416;2023-07-31T05:20:14;99699.32;;;17.71;64.47
35307;BME280;21420;52.196;21.416;2023-07-31T05:22:41;99703.10;;;17.79;64.52
35307;BME280;21420;52.196;21.416;2023-07-31T05:25:08;99700.63;;;17.87;64.61
35307;BME280;21420;52.196;21.416;2023-07-31T05:27:35;99700.85;;;17.91;64.39
35307;BME280;21420;52.196;21.416;2023-07-31T05:30:01;99702.66;;;17.93;64.53
35307;BME280;21420;52.196;21.416;2023-07-31T05:32:28;99703.20;;;17.97;64.49
35307;BME280;21420;52.196;21.416;2023-07-31T05:34:57;99698.20;;;18.01;64.43
35307;BME280;21420;52.196;21.416;2023-07-31T05:37:23;99700.77;;;18.09;64.58
35307;BME280;21420;52.196;21.416;2023-07-31T05:39:50;99701.98;;;18.17;64.57
35307;BME280;21420;52.196;21.416;2023-07-31T05:42:18;99702.75;;;18.24;64.57
35307;BME280;21420;52.196;21.416;2023-07-31T05:44:45;99707.46;;;18.30;64.44
35307;BME280;21420;52.196;21.416;2023-07-31T05:47:12;99706.32;;;18.36;64.36
35307;BME280;21420;52.196;21.416;2023-07-31T05:49:38;99707.13;;;18.48;64.63
35307;BME280;21420;52.196;21.416;2023-07-31T05:52:05;99706.96;;;18.60;64.63
35307;BME280;21420;52.196;21.416;2023-07-31T05:54:32;99710.23;;;18.68;64.47
35307;BME280;21420;52.196;21.416;2023-07-31T05:57:00;99717.87;;;18.78;64.45
35307;BME280;21420;52.196;21.416;2023-07-31T05:59:27;99724.78;;;18.87;64.31
35307;BME280;21420;52.196;21.416;2023-07-31T06:01:54;99732.16;;;18.95;64.29
35307;BME280;21420;52.196;21.416;2023-07-31T06:04:21;99729.82;;;19.01;64.20
35307;BME280;21420;52.196;21.416;2023-07-31T06:06:51;99735.48;;;19.08;64.11
35307;BME280;21420;52.196;21.416;2023-07-31T06:09:18;99736.25;;;19.10;64.01
35307;BME280;21420;52.196;21.416;2023-07-31T06:11:44;99738.73;;;19.16;64.12
35307;BME280;21420;52.196;21.416;2023-07-31T06:14:11;99741.16;;;19.29;64.20
35307;BME280;21420;52.196;21.416;2023-07-31T06:16:38;99743.85;;;19.46;64.18
35307;BME280;21420;52.196;21.416;2023-07-31T06:19:05;99745.27;;;19.56;64.06
35307;BME280;21420;52.196;21.416;2023-07-31T06:21:33;99739.44;;;19.59;63.77
35307;BME280;21420;52.196;21.416;2023-07-31T06:24:00;99743.02;;;19.59;63.58
35307;BME280;21420;52.196;21.416;2023-07-31T06:26:27;99741.58;;;19.67;63.91
35307;BME280;21420;52.196;21.416;2023-07-31T06:28:57;99736.16;;;19.85;63.85
35307;BME280;21420;52.196;21.416;2023-07-31T06:31:23;99742.52;;;19.91;63.39
35307;BME280;21420;52.196;21.416;2023-07-31T06:33:51;99742.52;;;19.84;63.18
35307;BME280;21420;52.196;21.416;2023-07-31T06:36:18;99750.09;;;19.83;63.11
35307;BME280;21420;52.196;21.416;2023-07-31T06:38:46;99747.38;;;19.84;63.03
35307;BME280;21420;52.196;21.416;2023-07-31T06:41:15;99750.17;;;19.89;63.05
35307;BME280;21420;52.196;21.416;2023-07-31T06:43:42;99749.04;;;19.98;63.10
35307;BME280;21420;52.196;21.416;2023-07-31T06:46:09;99753.96;;;20.03;62.99
35307;BME280;21420;52.196;21.416;2023-07-31T06:48:36;99755.14;;;20.11;62.91
35307;BME280;21420;52.196;21.416;2023-07-31T06:51:04;99753.60;;;20.20;62.93
35307;BME280;21420;52.196;21.416;2023-07-31T06:53:31;99754.59;;;20.30;62.90
35307;BME280;21420;52.196;21.416;2023-07-31T06:55:59;99755.02;;;20.40;62.84
35307;BME280;21420;52.196;21.416;2023-07-31T06:58:27;99756.78;;;20.44;62.75
35307;BME280;21420;52.196;21.416;2023-07-31T07:00:54;99756.38;;;20.45;62.58
35307;BME280;21420;52.196;21.416;2023-07-31T07:03:21;99749.52;;;20.47;62.51
35307;BME280;21420;52.196;21.416;2023-07-31T07:05:48;99753.13;;;20.50;62.48
35307;BME280;21420;52.196;21.416;2023-07-31T07:08:14;99749.00;;;20.50;62.29
35307;BME280;21420;52.196;21.416;2023-07-31T07:10:42;99758.22;;;20.45;62.06
35307;BME280;21420;52.196;21.416;2023-07-31T07:13:09;99762.61;;;20.43;62.14
35307;BME280;21420;52.196;21.416;2023-07-31T07:15:36;99761.16;;;20.44;62.26
35307;BME280;21420;52.196;21.416;2023-07-31T07:18:03;99763.14;;;20.44;62.14
35307;BME280;21420;52.196;21.416;2023-07-31T07:20:30;99762.78;;;20.41;61.97
35307;BME280;21420;52.196;21.416;2023-07-31T07:22:58;99764.86;;;20.34;61.84
35307;BME280;21420;52.196;21.416;2023-07-31T07:25:25;99767.61;;;20.30;61.90
35307;BME280;21420;52.196;21.416;2023-07-31T07:27:52;99767.42;;;20.38;61.92
35307;BME280;21420;52.196;21.416;2023-07-31T07:30:19;99768.15;;;20.49;62.06
35307;BME280;21420;52.196;21.416;2023-07-31T07:32:46;99763.20;;;20.64;61.94
35307;BME280;21420;52.196;21.416;2023-07-31T07:35:13;99759.50;;;20.79;61.87
35307;BME280;21420;52.196;21.416;2023-07-31T07:37:40;99753.36;;;21.15;62.32
35307;BME280;21420;52.196;21.416;2023-07-31T07:40:08;99754.02;;;21.76;62.33
35307;BME280;21420;52.196;21.416;2023-07-31T07:45:19;99758.48;;;22.46;61.61
35307;BME280;21420;52.196;21.416;2023-07-31T07:47:46;99763.88;;;22.39;61.04
35307;BME280;21420;52.196;21.416;2023-07-31T07:50:12;99772.24;;;22.27;60.84
35307;BME280;21420;52.196;21.416;2023-07-31T07:52:38;99773.42;;;22.11;60.64
35307;BME280;21420;52.196;21.416;2023-07-31T07:55:05;99770.98;;;21.97;60.51
35307;BME280;21420;52.196;21.416;2023-07-31T07:57:31;99766.98;;;21.91;60.52
35307;BME280;21420;52.196;21.416;2023-07-31T07:59:57;99773.20;;;21.90;60.50
35307;BME280;21420;52.196;21.416;2023-07-31T08:02:23;99769.80;;;22.05;60.59
35307;BME280;21420;52.196;21.416;2023-07-31T08:04:49;99771.23;;;22.66;61.11
35307;BME280;21420;52.196;21.416;2023-07-31T08:07:15;99781.41;;;23.48;61.20
35307;BME280;21420;52.196;21.416;2023-07-31T08:09:41;99778.59;;;24.20;61.01
35307;BME280;21420;52.196;21.416;2023-07-31T08:12:08;99775.59;;;24.89;60.64
35307;BME280;21420;52.196;21.416;2023-07-31T08:14:35;99770.42;;;25.49;60.33
35307;BME280;21420;52.196;21.416;2023-07-31T08:17:02;99765.86;;;25.79;59.51
35307;BME280;21420;52.196;21.416;2023-07-31T08:19:28;99767.70;;;25.68;58.65
35307;BME280;21420;52.196;21.416;2023-07-31T08:21:54;99772.45;;;25.90;58.91
35307;BME280;21420;52.196;21.416;2023-07-31T08:24:24;99777.45;;;26.11;58.16
35307;BME280;21420;52.196;21.416;2023-07-31T08:26:50;99770.68;;;26.51;58.69
35307;BME280;21420;52.196;21.416;2023-07-31T08:29:17;99770.39;;;27.29;58.92
35307;BME280;21420;52.196;21.416;2023-07-31T08:31:44;99774.35;;;28.17;58.64
35307;BME280;21420;52.196;21.416;2023-07-31T08:34:10;99772.39;;;28.93;57.91
35307;BME280;21420;52.196;21.416;2023-07-31T08:36:36;99769.45;;;29.36;57.05
35307;BME280;21420;52.196;21.416;2023-07-31T08:39:03;99768.13;;;29.95;57.13
35307;BME280;21420;52.196;21.416;2023-07-31T08:41:30;99768.36;;;30.52;56.60
35307;BME280;21420;52.196;21.416;2023-07-31T08:43:56;99771.52;;;30.85;56.01
35307;BME280;21420;52.196;21.416;2023-07-31T08:46:24;99770.77;;;31.00;55.18
35307;BME280;21420;52.196;21.416;2023-07-31T08:48:51;99763.80;;;31.00;54.76
35307;BME280;21420;52.196;21.416;2023-07-31T08:51:19;99765.84;;;31.00;53.96
35307;BME280;21420;52.196;21.416;2023-07-31T08:53:45;99767.29;;;31.01;53.69
35307;BME280;21420;52.196;21.416;2023-07-31T08:56:13;99765.41;;;31.21;53.34
35307;BME280;21420;52.196;21.416;2023-07-31T08:58:41;99768.08;;;31.51;53.05
35307;BME280;21420;52.196;21.416;2023-07-31T09:01:08;99768.05;;;31.89;53.00
35307;BME280;21420;52.196;21.416;2023-07-31T09:03:35;99767.69;;;32.35;52.57
35307;BME280;21420;52.196;21.416;2023-07-31T09:06:03;99766.45;;;32.81;52.45
35307;BME280;21420;52.196;21.416;2023-07-31T09:08:32;99761.36;;;33.11;51.84
35307;BME280;21420;52.196;21.416;2023-07-31T09:11:00;99764.13;;;33.41;51.58
35307;BME280;21420;52.196;21.416;2023-07-31T09:13:32;99771.36;;;33.68;51.20
35307;BME280;21420;52.196;21.416;2023-07-31T09:15:58;99763.03;;;33.98;51.00
35307;BME280;21420;52.196;21.416;2023-07-31T09:18:25;99761.18;;;34.39;50.82
35307;BME280;21420;52.196;21.416;2023-07-31T09:21:05;99770.21;;;34.79;50.40
35307;BME280;21420;52.196;21.416;2023-07-31T09:23:45;99764.42;;;34.80;49.19
35307;BME280;21420;52.196;21.416;2023-07-31T09:26:28;99762.17;;;34.69;49.00
35307;BME280;21420;52.196;21.416;2023-07-31T09:28:55;99757.18;;;34.86;48.87
35307;BME280;21420;52.196;21.416;2023-07-31T09:31:41;99747.48;;;35.22;48.90
35307;BME280;21420;52.196;21.416;2023-07-31T09:34:09;99753.56;;;35.43;48.05
35307;BME280;21420;52.196;21.416;2023-07-31T09:36:41;99752.14;;;35.37;47.87
35307;BME280;21420;52.196;21.416;2023-07-31T09:39:10;99760.55;;;35.39;47.27
35307;BME280;21420;52.196;21.416;2023-07-31T09:41:43;99755.23;;;35.40;46.86
35307;BME280;21420;52.196;21.416;2023-07-31T09:44:11;99753.95;;;35.60;46.79
35307;BME280;21420;52.196;21.416;2023-07-31T09:46:38;99753.52;;;35.26;45.95
35307;BME280;21420;52.196;21.416;2023-07-31T09:49:07;99747.92;;;34.90;46.13
35307;BME280;21420;52.196;21.416;2023-07-31T09:51:37;99750.83;;;35.01;46.18
35307;BME280;21420;52.196;21.416;2023-07-31T09:54:15;99756.91;;;35.15;45.86
35307;BME280;21420;52.196;21.416;2023-07-31T09:56:47;99753.09;;;35.16;45.41
35307;BME280;21420;52.196;21.416;2023-07-31T09:59:16;99754.80;;;35.10;44.96
35307;BME280;21420;52.196;21.416;2023-07-31T10:01:44;99755.94;;;34.49;44.32
35307;BME280;21420;52.196;21.416;2023-07-31T10:04:12;99752.06;;;34.11;44.83
35307;BME280;21420;52.196;21.416;2023-07-31T10:06:40;99756.17;;;34.55;45.13
35307;BME280;21420;52.196;21.416;2023-07-31T10:09:08;99758.70;;;34.73;44.62
35307;BME280;21420;52.196;21.416;2023-07-31T10:11:47;99759.64;;;33.78;43.56
35307;BME280;21420;52.196;21.416;2023-07-31T10:14:20;99756.34;;;32.54;43.38
35307;BME280;21420;52.196;21.416;2023-07-31T10:16:47;99754.51;;;32.41;44.05
35307;BME280;21420;52.196;21.416;2023-07-31T10:19:14;99745.24;;;32.47;44.08
35307;BME280;21420;52.196;21.416;2023-07-31T10:21:42;99749.13;;;32.00;43.57
35307;BME280;21420;52.196;21.416;2023-07-31T10:24:08;99745.98;;;32.29;44.47
35307;BME280;21420;52.196;21.416;2023-07-31T10:26:35;99743.95;;;33.07;44.79
35307;BME280;21420;52.196;21.416;2023-07-31T10:29:05;99746.00;;;33.56;44.36
35307;BME280;21420;52.196;21.416;2023-07-31T10:31:33;99746.10;;;33.93;44.14
35307;BME280;21420;52.196;21.416;2023-07-31T10:34:01;99744.02;;;34.31;43.95
35307;BME280;21420;52.196;21.416;2023-07-31T10:36:29;99740.63;;;34.49;43.24
35307;BME280;21420;52.196;21.416;2023-07-31T10:38:55;99736.92;;;34.07;42.64
35307;BME280;21420;52.196;21.416;2023-07-31T10:41:30;99738.86;;;34.27;43.12
35307;BME280;21420;52.196;21.416;2023-07-31T10:44:02;99736.21;;;34.73;42.95
35307;BME280;21420;52.196;21.416;2023-07-31T10:46:29;99738.20;;;34.90;42.75
35307;BME280;21420;52.196;21.416;2023-07-31T10:49:01;99740.42;;;34.93;42.09
35307;BME280;21420;52.196;21.416;2023-07-31T10:51:35;99739.36;;;34.61;41.67
35307;BME280;21420;52.196;21.416;2023-07-31T10:54:13;99738.19;;;34.53;41.58
35307;BME280;21420;52.196;21.416;2023-07-31T10:56:44;99734.88;;;33.92;40.93
35307;BME280;21420;52.196;21.416;2023-07-31T10:59:10;99737.80;;;33.32;41.11
35307;BME280;21420;52.196;21.416;2023-07-31T11:01:52;99741.13;;;33.08;40.99
35307;BME280;21420;52.196;21.416;2023-07-31T11:04:26;99730.91;;;33.07;41.21
35307;BME280;21420;52.196;21.416;2023-07-31T11:07:00;99729.51;;;32.96;41.01
35307;BME280;21420;52.196;21.416;2023-07-31T11:09:32;99731.71;;;32.51;40.80
35307;BME280;21420;52.196;21.416;2023-07-31T11:11:59;99731.98;;;31.74;40.65
35307;BME280;21420;52.196;21.416;2023-07-31T11:14:26;99731.35;;;31.31;41.00
35307;BME280;21420;52.196;21.416;2023-07-31T11:16:53;99731.61;;;30.90;41.12
35307;BME280;21420;52.196;21.416;2023-07-31T11:19:23;99730.86;;;30.35;41.15
35307;BME280;21420;52.196;21.416;2023-07-31T11:21:53;99729.89;;;29.77;41.01
35307;BME280;21420;52.196;21.416;2023-07-31T11:24:20;99734.16;;;29.36;41.32
35307;BME280;21420;52.196;21.416;2023-07-31T11:26:53;99726.76;;;29.16;41.98
35307;BME280;21420;52.196;21.416;2023-07-31T11:29:20;99720.38;;;29.27;42.37
35307;BME280;21420;52.196;21.416;2023-07-31T11:31:47;99723.06;;;29.53;42.44
35307;BME280;21420;52.196;21.416;2023-07-31T11:34:15;99719.08;;;29.57;42.19
35307;BME280;21420;52.196;21.416;2023-07-31T11:36:53;99718.24;;;29.59;42.03
35307;BME280;21420;52.196;21.416;2023-07-31T11:39:21;99718.10;;;29.69;41.74
35307;BME280;21420;52.196;21.416;2023-07-31T11:41:47;99716.93;;;29.44;41.35
35307;BME280;21420;52.196;21.416;2023-07-31T11:44:14;99721.59;;;28.96;41.23
35307;BME280;21420;52.196;21.416;2023-07-31T11:46:56;99719.71;;;28.97;42.06
35307;BME280;21420;52.196;21.416;2023-07-31T11:49:23;99719.78;;;29.59;42.48
35307;BME280;21420;52.196;21.416;2023-07-31T11:51:49;99717.11;;;29.87;42.23
35307;BME280;21420;52.196;21.416;2023-07-31T11:54:16;99717.84;;;30.11;42.02
35307;BME280;21420;52.196;21.416;2023-07-31T11:56:43;99718.20;;;29.94;41.03
35307;BME280;21420;52.196;21.416;2023-07-31T11:59:10;99708.02;;;29.50;40.85
35307;BME280;21420;52.196;21.416;2023-07-31T12:01:38;99706.39;;;29.35;41.21
35307;BME280;21420;52.196;21.416;2023-07-31T12:04:05;99703.59;;;29.70;42.01
35307;BME280;21420;52.196;21.416;2023-07-31T12:06:37;99702.27;;;30.13;42.00
35307;BME280;21420;52.196;21.416;2023-07-31T12:09:05;99698.85;;;30.23;41.47
35307;BME280;21420;52.196;21.416;2023-07-31T12:11:43;99700.22;;;30.19;41.36
35307;BME280;21420;52.196;21.416;2023-07-31T12:14:23;99699.52;;;30.11;41.32
35307;BME280;21420;52.196;21.416;2023-07-31T12:16:58;99701.44;;;29.95;41.07
35307;BME280;21420;52.196;21.416;2023-07-31T12:19:26;99700.15;;;29.43;40.51
35307;BME280;21420;52.196;21.416;2023-07-31T12:21:56;99702.39;;;28.89;40.39
35307;BME280;21420;52.196;21.416;2023-07-31T12:24:23;99703.41;;;28.48;40.46
35307;BME280;21420;52.196;21.416;2023-07-31T12:26:50;99694.15;;;28.24;40.65
35307;BME280;21420;52.196;21.416;2023-07-31T12:29:16;99690.67;;;28.05;40.80
35307;BME280;21420;52.196;21.416;2023-07-31T12:31:42;99689.98;;;27.94;40.93
35307;BME280;21420;52.196;21.416;2023-07-31T12:34:19;99688.90;;;27.92;41.25
35307;BME280;21420;52.196;21.416;2023-07-31T12:36:47;99684.95;;;27.95;41.29
35307;BME280;21420;52.196;21.416;2023-07-31T12:39:14;99687.64;;;27.96;41.22
35307;BME280;21420;52.196;21.416;2023-07-31T12:41:40;99690.00;;;27.97;41.16
35307;BME280;21420;52.196;21.416;2023-07-31T12:44:07;99684.80;;;27.92;41.18
35307;BME280;21420;52.196;21.416;2023-07-31T12:46:33;99682.21;;;27.90;41.13
35307;BME280;21420;52.196;21.416;2023-07-31T12:48:59;99683.27;;;27.92;41.02
35307;BME280;21420;52.196;21.416;2023-07-31T12:51:26;99684.63;;;27.81;41.05
35307;BME280;21420;52.196;21.416;2023-07-31T12:53:53;99681.92;;;27.60;41.07
35307;BME280;21420;52.196;21.416;2023-07-31T12:56:19;99678.09;;;27.49;40.90
35307;BME280;21420;52.196;21.416;2023-07-31T12:58:45;99676.20;;;27.26;40.91
35307;BME280;21420;52.196;21.416;2023-07-31T13:01:11;99676.66;;;27.02;41.16
35307;BME280;21420;52.196;21.416;2023-07-31T13:03:38;99670.30;;;26.81;41.16
35307;BME280;21420;52.196;21.416;2023-07-31T13:06:04;99665.77;;;26.73;41.13
35307;BME280;21420;52.196;21.416;2023-07-31T13:08:32;99665.63;;;26.72;41.23
35307;BME280;21420;52.196;21.416;2023-07-31T13:10:58;99661.20;;;26.62;41.34
35307;BME280;21420;52.196;21.416;2023-07-31T13:13:24;99660.67;;;26.55;41.23